createdAt,value
2023-04-01T00:03:44.956Z,98843.2
2023-04-01T00:07:45.901Z,98852.51
2023-04-01T00:11:45.410Z,98848.81
2023-04-01T00:15:45.622Z,98855.1
2023-04-01T00:19:44.814Z,98865.54
2023-04-01T00:23:45.106Z,98867.52
2023-04-01T00:27:45.284Z,98879.89
2023-04-01T00:31:45.015Z,98878.09
2023-04-01T00:35:45.144Z,98877.06
2023-04-01T00:39:45.984Z,98884.45
2023-04-01T00:43:47.004Z,98889.53
2023-04-01T00:47:45.337Z,98887.84000000001
2023-04-01T00:51:48.061Z,98895.01000000001
2023-04-01T00:55:51.612Z,98903.14
2023-04-01T00:59:49.791Z,98909.22
2023-04-01T01:03:45.328Z,98914.06
2023-04-01T01:11:54.085Z,98921.97
2023-04-01T01:15:50.085Z,98928.68999999999
2023-04-01T01:19:57.226Z,98932.93
2023-04-01T01:24:03.298Z,98932.4
2023-04-01T01:27:54.303Z,98938.4
2023-04-01T01:31:56.268Z,98945.03
2023-04-01T01:35:48.351Z,98953.22
2023-04-01T01:39:56.138Z,98955.19
2023-04-01T01:43:48.483Z,98959.72
2023-04-01T01:47:46.220Z,98967.52
2023-04-01T01:51:45.486Z,98971.04000000001
2023-04-01T01:55:47.192Z,98973.24
2023-04-01T01:59:48.506Z,98982.72
2023-04-01T02:03:46.718Z,98990.59
2023-04-01T02:07:53.978Z,98999.65
2023-04-01T02:11:49.628Z,99005.98
2023-04-01T02:15:49.394Z,99009.17
2023-04-01T02:19:49.859Z,99012.59
2023-04-01T02:23:46.927Z,99014.59
2023-04-01T02:31:46.136Z,99018.84999999999
2023-04-01T02:35:45.466Z,99027.04
2023-04-01T02:39:45.462Z,99032.46
2023-04-01T02:43:45.128Z,99034.92
2023-04-01T02:47:45.545Z,99030.61
2023-04-01T02:51:45.287Z,99035.99
2023-04-01T02:55:45.385Z,99050.05
2023-04-01T02:59:45.502Z,99048.99
2023-04-01T03:03:45.523Z,99050.69
2023-04-01T03:07:45.646Z,99054.66
2023-04-01T03:15:45.373Z,99059.7
2023-04-01T03:19:45.771Z,99065.28
2023-04-01T03:23:45.960Z,99070.45000000001
2023-04-01T03:31:45.812Z,99074.47
2023-04-01T03:35:45.591Z,99074.55
2023-04-01T03:39:45.472Z,99084.36
2023-04-01T03:47:45.579Z,99083.48999999999
2023-04-01T03:51:45.482Z,99086.87999999999
2023-04-01T03:55:45.514Z,99093.98
2023-04-01T03:59:45.402Z,99099.91
2023-04-01T04:03:45.821Z,99097.58
2023-04-01T04:07:45.313Z,99106.05
2023-04-01T04:15:45.438Z,99125.55
2023-04-01T04:19:45.406Z,99127.26
2023-04-01T04:23:45.505Z,99137.98000000001
2023-04-01T04:27:45.547Z,99140.88
2023-04-01T04:31:45.990Z,99140.12
2023-04-01T04:35:46.010Z,99149.1
2023-04-01T04:39:46.141Z,99146.34
2023-04-01T04:43:51.022Z,99155.26
2023-04-01T04:47:45.802Z,99169.02
2023-04-01T04:51:45.582Z,99168.26999999999
2023-04-01T04:55:46.230Z,99171.5
2023-04-01T04:59:45.959Z,99176.01
2023-04-01T05:03:46.357Z,99176.86
2023-04-01T05:07:45.705Z,99180.84999999999
2023-04-01T05:11:45.979Z,99187.15999999999
2023-04-01T05:15:45.659Z,99196.01
2023-04-01T05:19:46.014Z,99202.87
2023-04-01T05:23:45.968Z,99207.86
2023-04-01T05:27:45.970Z,99212.31
2023-04-01T05:31:45.734Z,99216.99
2023-04-01T05:35:45.829Z,99220.7
2023-04-01T05:39:46.259Z,99226.84000000001
2023-04-01T05:43:45.739Z,99234.93999999999
2023-04-01T05:51:45.949Z,99247.29999999999
2023-04-01T05:55:46.077Z,99252.09
2023-04-01T05:59:46.088Z,99259.22
2023-04-01T06:03:45.779Z,99261.32
2023-04-01T06:07:46.504Z,99265.52
2023-04-01T06:15:57.634Z,99277.84
2023-04-01T06:19:55.477Z,99278.49
2023-04-01T06:23:58.648Z,99285.08
2023-04-01T06:28:01.264Z,99292.66
2023-04-01T06:32:00.524Z,99298.24
2023-04-01T06:39:56.402Z,99305.61
2023-04-01T06:43:59.668Z,99308.69
2023-04-01T06:47:57.434Z,99310.69
2023-04-01T06:51:54.685Z,99318.39
2023-04-01T06:55:48.244Z,99324.41
2023-04-01T06:59:47.635Z,99329.38
2023-04-01T07:03:51.704Z,99332.29
2023-04-01T07:07:50.466Z,99334.17
2023-04-01T07:11:46.443Z,99342.26999999999
2023-04-01T07:15:56.737Z,99348.19
2023-04-01T07:19:52.834Z,99347.78
2023-04-01T07:23:47.499Z,99350.84000000001
2023-04-01T07:27:47.026Z,99356.07
2023-04-01T07:35:55.838Z,99362.75
2023-04-01T07:39:54.787Z,99366.35
2023-04-01T07:44:00.054Z,99363.51
2023-04-01T07:47:59.689Z,99376.12000000001
2023-04-01T07:51:58.791Z,99379.28
2023-04-01T07:55:54.825Z,99384.93999999999
2023-04-01T07:59:52.192Z,99395.25
2023-04-01T08:04:04.789Z,99395.04
2023-04-01T08:07:55.367Z,99406.98999999999
2023-04-01T08:15:53.317Z,99416.33
2023-04-01T08:23:49.663Z,99429.16
2023-04-01T08:31:50.576Z,99437.48000000001
2023-04-01T08:35:51.868Z,99445.06999999999
2023-04-01T08:39:52.126Z,99446.51
2023-04-01T08:44:05.360Z,99445.95000000001
2023-04-01T08:48:01.529Z,99452.34
2023-04-01T08:52:06.015Z,99453.94
2023-04-01T08:55:59.655Z,99462.7
2023-04-01T09:00:01.020Z,99473.46
2023-04-01T09:04:05.692Z,99482.92
2023-04-01T09:07:56.187Z,99481.73000000001
2023-04-01T09:12:05.984Z,99479.24
2023-04-01T09:15:58.573Z,99489.43000000001
2023-04-01T09:20:05.458Z,99493.34999999999
2023-04-01T09:24:06.183Z,99496.79
2023-04-01T09:27:56.193Z,99508.91
2023-04-01T09:35:48.836Z,99515.91
2023-04-01T09:39:56.321Z,99519.82
2023-04-01T09:44:01.580Z,99520.36
2023-04-01T09:48:00.920Z,99529.54999999999
2023-04-01T09:52:00.663Z,99536.71
2023-04-01T09:56:06.060Z,99542.88
2023-04-01T10:00:00.041Z,99545.31
2023-04-01T10:04:07.108Z,99552.0
2023-04-01T10:08:06.298Z,99555.35
2023-04-01T10:16:00.284Z,99571.5
2023-04-01T10:23:57.441Z,99581.96
2023-04-01T10:27:58.419Z,99590.99
2023-04-01T10:32:05.643Z,99598.03
2023-04-01T10:36:06.353Z,99601.17
2023-04-01T10:40:06.346Z,99604.64
2023-04-01T10:43:58.624Z,99609.67000000001
2023-04-01T10:48:06.476Z,99611.41
2023-04-01T10:52:06.382Z,99626.39
2023-04-01T10:56:06.358Z,99626.57
2023-04-01T11:00:06.666Z,99639.78
2023-04-01T11:04:06.374Z,99643.64
2023-04-01T11:08:07.341Z,99649.33
2023-04-01T11:12:03.815Z,99657.12
2023-04-01T11:16:06.501Z,99655.45
2023-04-01T11:20:06.295Z,99663.2
2023-04-01T11:24:04.521Z,99662.90000000001
2023-04-01T11:28:01.757Z,99666.09999999999
2023-04-01T11:31:53.772Z,99671.25
2023-04-01T11:35:58.630Z,99680.38
2023-04-01T11:39:58.400Z,99682.32
2023-04-01T11:43:55.405Z,99682.23000000001
2023-04-01T11:47:53.999Z,99689.86
2023-04-01T11:52:01.363Z,99688.58
2023-04-01T11:55:55.563Z,99700.14
2023-04-01T11:59:58.568Z,99707.78
2023-04-01T12:03:56.833Z,99716.3
2023-04-01T12:08:01.619Z,99720.17
2023-04-01T12:12:02.459Z,99724.56
2023-04-01T12:16:04.885Z,99731.72
2023-04-01T12:19:53.613Z,99744.47
2023-04-01T12:24:06.654Z,99754.94
2023-04-01T12:28:00.227Z,99756.34
2023-04-01T12:31:56.950Z,99758.29
2023-04-01T12:36:00.654Z,99755.17
2023-04-01T12:40:02.511Z,99770.61
2023-04-01T12:44:06.634Z,99769.02
2023-04-01T12:48:03.280Z,99774.44
2023-04-01T12:55:50.743Z,99780.14
2023-04-01T13:00:03.817Z,99786.31
2023-04-01T13:04:05.829Z,99797.85
2023-04-01T13:08:02.443Z,99796.55
2023-04-01T13:12:01.161Z,99807.76
2023-04-01T13:15:52.299Z,99809.61
2023-04-01T13:23:56.171Z,99823.47
2023-04-01T13:27:51.641Z,99822.43999999999
2023-04-01T13:31:55.615Z,99823.29999999999
2023-04-01T13:35:57.612Z,99833.78
2023-04-01T13:40:03.765Z,99834.92
2023-04-01T13:43:52.776Z,99846.39
2023-04-01T13:48:00.789Z,99844.08
2023-04-01T13:52:03.514Z,99848.25
2023-04-01T13:55:55.000Z,99859.39
2023-04-01T14:00:03.560Z,99861.64
2023-04-01T14:04:06.736Z,99866.94
2023-04-01T14:08:00.494Z,99871.73
2023-04-01T14:11:55.628Z,99877.26
2023-04-01T14:20:02.977Z,99890.20000000001
2023-04-01T14:23:56.253Z,99906.98
2023-04-01T14:28:00.652Z,99906.94
2023-04-01T14:32:00.171Z,99910.11
2023-04-01T14:35:59.814Z,99915.37
2023-04-01T14:40:05.199Z,99921.88
2023-04-01T14:44:02.020Z,99926.47
2023-04-01T14:47:50.903Z,99928.36
2023-04-01T14:51:48.571Z,99937.17
2023-04-01T14:55:51.318Z,99941.45999999999
2023-04-01T14:59:50.211Z,99953.27
2023-04-01T15:03:57.231Z,99960.23
2023-04-01T15:08:02.267Z,99966.11
2023-04-01T15:11:54.891Z,99964.26
2023-04-01T15:16:03.178Z,99963.71
2023-04-01T15:23:57.541Z,99977.98
2023-04-01T15:27:55.965Z,99982.79
2023-04-01T15:31:52.895Z,99992.04999999999
2023-04-01T15:35:54.166Z,100003.8
2023-04-01T15:39:55.599Z,100006.3
2023-04-01T15:43:49.217Z,100014.34000000001
2023-04-01T15:48:00.415Z,100021.26
2023-04-01T15:52:02.682Z,100028.65000000001
2023-04-01T15:55:54.809Z,100034.09
2023-04-01T16:00:02.689Z,100035.17
2023-04-01T16:03:55.617Z,100047.43999999999
2023-04-01T16:08:04.025Z,100045.95000000001
2023-04-01T16:11:57.366Z,100051.15
2023-04-01T16:15:57.735Z,100059.12
2023-04-01T16:19:52.971Z,100059.36
2023-04-01T16:23:50.650Z,100069.16
2023-04-01T16:27:56.133Z,100073.19
2023-04-01T16:31:55.749Z,100075.76000000001
2023-04-01T16:35:53.557Z,100076.98000000001
2023-04-01T16:39:54.512Z,100081.20999999999
2023-04-01T16:43:54.819Z,100084.88
2023-04-01T16:47:52.096Z,100095.01000000001
2023-04-01T16:55:53.014Z,100107.0
2023-04-01T16:59:55.147Z,100107.93
2023-04-01T17:03:53.295Z,100116.03
2023-04-01T17:07:59.688Z,100121.73
2023-04-01T17:11:56.352Z,100127.31
2023-04-01T17:16:02.461Z,100137.33
2023-04-01T17:20:01.712Z,100148.78
2023-04-01T17:23:51.500Z,100154.21
2023-04-01T17:27:57.542Z,100158.48999999999
2023-04-01T17:32:01.011Z,100168.05
2023-04-01T17:43:55.806Z,100193.94
2023-04-01T17:47:55.899Z,100201.19
2023-04-01T17:51:57.015Z,100210.94
2023-04-01T17:56:02.831Z,100220.25
2023-04-01T17:59:59.579Z,100234.88
2023-04-01T18:04:00.217Z,100247.86
2023-04-01T18:11:58.535Z,100265.36
2023-04-01T18:16:00.054Z,100275.05
2023-04-01T18:24:01.538Z,100292.21
2023-04-01T18:27:52.122Z,100290.37
2023-04-01T18:31:51.792Z,100305.25
2023-04-01T18:35:51.820Z,100311.15999999999
2023-04-01T18:43:58.450Z,100325.23
2023-04-01T18:47:57.894Z,100329.90999999999
2023-04-01T18:51:53.791Z,100339.56
2023-04-01T18:55:50.605Z,100351.05
2023-04-01T18:59:52.974Z,100358.01
2023-04-01T19:03:55.661Z,100370.61
2023-04-01T19:07:49.864Z,100375.57
2023-04-01T19:12:00.105Z,100377.14
2023-04-01T19:15:56.007Z,100385.90000000001
2023-04-01T19:24:01.195Z,100401.83
2023-04-01T19:27:51.732Z,100408.86
2023-04-01T19:31:58.824Z,100419.9
2023-04-01T19:35:59.654Z,100423.72
2023-04-01T19:39:56.111Z,100431.84
2023-04-01T19:43:58.843Z,100435.72
2023-04-01T19:48:00.289Z,100446.51
2023-04-01T19:51:54.198Z,100462.37999999999
2023-04-01T19:55:54.516Z,100468.94
2023-04-01T19:59:53.307Z,100474.78
2023-04-01T20:03:52.256Z,100475.39
2023-04-01T20:07:52.805Z,100484.44
2023-04-01T20:16:00.099Z,100487.22
2023-04-01T20:19:57.954Z,100488.81999999999
2023-04-01T20:23:55.502Z,100494.69
2023-04-01T20:27:53.505Z,100499.01
2023-04-01T20:31:59.188Z,100504.88
2023-04-01T20:36:03.573Z,100515.8
2023-04-01T20:40:07.823Z,100526.73999999999
2023-04-01T20:43:58.974Z,100534.3
2023-04-01T20:48:05.196Z,100537.62000000001
2023-04-01T20:51:54.712Z,100546.38
2023-04-01T20:56:06.389Z,100556.06
2023-04-01T21:00:08.082Z,100565.84
2023-04-01T21:04:02.552Z,100570.64
2023-04-01T21:07:55.996Z,100578.73
2023-04-01T21:11:53.669Z,100586.42
2023-04-01T21:15:58.269Z,100586.7
2023-04-01T21:20:09.590Z,100596.95
2023-04-01T21:23:58.284Z,100609.47
2023-04-01T21:28:00.515Z,100612.58
2023-04-01T21:32:04.506Z,100619.7
2023-04-01T21:36:00.190Z,100618.92
2023-04-01T21:39:59.406Z,100628.81999999999
2023-04-01T21:44:05.218Z,100636.78
2023-04-01T21:48:08.308Z,100636.22
2023-04-01T21:52:07.975Z,100644.7
2023-04-01T21:56:08.107Z,100654.76
2023-04-01T22:00:11.020Z,100662.15999999999
2023-04-01T22:03:59.137Z,100664.83
2023-04-01T22:07:59.292Z,100665.38
2023-04-01T22:11:55.705Z,100670.68000000001
2023-04-01T22:16:00.841Z,100682.75
2023-04-01T22:19:56.754Z,100689.69
2023-04-01T22:23:56.615Z,100694.67
2023-04-01T22:27:53.131Z,100694.61
2023-04-01T22:31:54.559Z,100700.17
2023-04-01T22:35:57.737Z,100698.01999999999
2023-04-01T22:40:00.065Z,100714.15
2023-04-01T22:48:01.225Z,100727.36
2023-04-01T22:51:52.831Z,100730.59
2023-04-01T22:55:53.590Z,100735.02
2023-04-01T22:59:55.023Z,100739.73
2023-04-01T23:03:51.526Z,100749.1
2023-04-01T23:07:56.377Z,100754.81
2023-04-01T23:11:55.281Z,100762.01999999999
2023-04-01T23:15:51.530Z,100766.18999999999
2023-04-01T23:19:56.325Z,100761.55
2023-04-01T23:23:57.006Z,100775.08
2023-04-01T23:27:53.787Z,100783.75
2023-04-01T23:31:57.371Z,100781.67
2023-04-01T23:39:51.429Z,100795.74
2023-04-01T23:43:54.413Z,100802.42
2023-04-01T23:47:50.496Z,100807.84999999999
2023-04-01T23:51:53.542Z,100811.69
2023-04-01T23:55:48.970Z,100812.61
